Time;durP1;ratioP1;P1;durP2;ratioP2;P2;SDS_P1;SDS_P2;PMS_P1;PMS_P2;Temp;Humidity;BMP_temperature;BMP_pressure;BME280_temperature;BME280_humidity;BME280_pressure;Samples;Min_cycle;Max_cycle;Signal;HPM_P1;HPM_P2
2022/01/24 00:01:37;;;;;;;1.23;1.02;;;;;;;19.92;30.21;100802.44;4232183;28;20104;-50
2022/01/24 00:03:39;;;;;;;1.42;1.33;;;;;;;19.85;29.98;100795.53;4232927;28;20531;-49
2022/01/24 00:05:41;;;;;;;1.60;1.10;;;;;;;19.92;30.29;100801.63;4233707;28;20097;-46
2022/01/24 00:07:43;;;;;;;1.88;1.17;;;;;;;19.92;30.36;100798.84;4234027;28;20096;-44
2022/01/24 00:09:47;;;;;;;2.05;1.23;;;;;;;19.93;30.26;100800.50;4233086;28;20036;-49
2022/01/24 00:16:23;;;;;;;1.60;1.05;;;;;;;19.93;30.48;100815.25;4234307;28;20535;-53
2022/01/24 00:18:35;;;;;;;1.40;1.02;;;;;;;19.90;30.29;100809.41;4232553;28;20044;-48
2022/01/24 00:27:59;;;;;;;1.75;1.20;;;;;;;19.93;30.48;100817.16;4233898;28;20096;-46
2022/01/24 00:30:01;;;;;;;2.90;1.13;;;;;;;19.93;30.41;100819.94;4232856;28;20051;-47
2022/01/24 00:32:03;;;;;;;1.73;1.25;;;;;;;19.86;30.39;100811.06;4233088;28;20081;-54
2022/01/24 00:34:04;;;;;;;1.20;1.10;;;;;;;19.92;30.40;100829.41;4220016;28;20048;-50
2022/01/24 00:36:06;;;;;;;1.45;1.10;;;;;;;19.92;30.42;100835.78;4227545;28;20076;-49
2022/01/24 00:38:08;;;;;;;1.45;1.05;;;;;;;19.92;30.51;100826.63;4232792;28;20077;-53
2022/01/24 00:40:10;;;;;;;1.20;1.05;;;;;;;19.85;30.53;100821.34;4227013;28;20155;-49
2022/01/24 00:44:37;;;;;;;1.30;1.20;;;;;;;19.91;30.26;100822.19;4218606;28;20028;-47
2022/01/24 00:46:45;;;;;;;2.42;1.23;;;;;;;19.97;30.50;100834.94;4231756;28;20044;-45
2022/01/24 00:53:38;;;;;;;2.30;1.20;;;;;;;19.93;30.71;100806.06;4233367;28;20409;-46
2022/01/24 00:55:40;;;;;;;1.52;1.15;;;;;;;19.91;30.46;100802.75;4224757;28;20156;-56
2022/01/24 00:57:42;;;;;;;4.15;1.50;;;;;;;19.96;30.62;100808.28;4227953;28;20449;-48
2022/01/24 00:59:43;;;;;;;2.15;1.60;;;;;;;19.95;30.33;100817.75;4232460;28;20043;-52
2022/01/24 01:01:50;;;;;;;3.00;1.25;;;;;;;19.84;30.31;100802.16;4228132;28;20143;-49
2022/01/24 01:03:57;;;;;;;1.58;1.10;;;;;;;19.93;30.41;100822.72;4233223;28;20471;-47
2022/01/24 01:19:31;;;;;;;4.38;1.30;;;;;;;19.88;30.90;100806.06;4225444;28;20101;-46
2022/01/24 01:21:33;;;;;;;2.33;0.98;;;;;;;19.93;30.84;100811.63;4197823;28;20087;-48
2022/01/24 01:23:42;;;;;;;6.13;1.80;;;;;;;19.92;30.45;100810.78;4215379;28;20089;-48
2022/01/24 01:25:48;;;;;;;8.85;2.60;;;;;;;19.91;30.88;100811.06;4215127;28;20475;-49
2022/01/24 01:27:53;;;;;;;4.93;2.72;;;;;;;19.92;30.94;100818.28;4214982;28;20085;-49
2022/01/24 01:30:04;;;;;;;10.80;3.20;;;;;;;19.89;31.00;100810.53;4214960;28;20116;-51
2022/01/24 01:56:18;;;;;;;26.10;13.05;;;;;;;19.86;30.94;100819.41;4248882;27;20080;-50
2022/01/24 01:58:21;;;;;;;27.60;13.88;;;;;;;19.87;31.33;100821.06;4234106;27;20456;-47
2022/01/24 02:00:23;;;;;;;27.15;13.93;;;;;;;19.88;31.38;100822.72;4230927;28;20096;-48
2022/01/24 02:02:24;;;;;;;27.30;14.80;;;;;;;19.86;31.50;100822.19;4231825;28;20096;-45
2022/01/24 02:04:26;;;;;;;24.67;14.07;;;;;;;19.87;31.10;100815.50;4230990;28;20545;-48
2022/01/24 02:06:27;;;;;;;30.52;15.73;;;;;;;19.80;31.04;100799.13;4213003;28;20040;-48
2022/01/24 02:08:31;;;;;;;29.25;14.75;;;;;;;19.85;31.39;100817.75;4214466;28;20441;-47
2022/01/24 02:10:38;;;;;;;29.17;15.30;;;;;;;19.85;31.15;100813.03;4213961;28;20032;-48
2022/01/24 02:12:40;;;;;;;29.20;15.63;;;;;;;19.84;31.46;100810.50;4214249;28;20040;-46
2022/01/24 02:14:49;;;;;;;28.75;15.30;;;;;;;19.86;31.28;100811.06;4207138;28;20040;-46
2022/01/24 02:16:59;;;;;;;29.15;15.35;;;;;;;19.84;31.36;100804.94;4231296;28;20109;-50
2022/01/24 02:19:29;;;;;;;30.90;15.52;;;;;;;19.86;31.27;100813.84;4231655;28;20093;-46
2022/01/24 02:23:45;;;;;;;33.40;16.73;;;;;;;19.87;31.35;100821.06;4215419;28;20467;-47
2022/01/24 02:25:47;;;;;;;29.08;14.98;;;;;;;19.84;31.32;100811.34;4214479;28;20036;-48
2022/01/24 02:27:55;;;;;;;32.80;16.10;;;;;;;19.84;31.51;100816.91;4205486;28;20069;-45
2022/01/24 02:32:07;;;;;;;31.13;16.30;;;;;;;19.82;31.75;100810.78;4215075;28;20028;-46
2022/01/24 02:34:33;;;;;;;31.63;15.68;;;;;;;19.80;31.55;100813.03;4222063;28;20378;-46
2022/01/24 02:36:34;;;;;;;30.13;16.67;;;;;;;19.80;31.70;100805.53;4225509;28;20072;-47
2022/01/24 02:38:51;;;;;;;31.90;16.15;;;;;;;19.74;31.82;100798.28;4214007;28;20085;-48
2022/01/24 02:48:22;;;;;;;30.80;15.88;;;;;;;19.80;32.07;100802.75;4181439;28;20029;-45
2022/01/24 02:48:26;;;;;;;31.33;15.48;;;;;;;19.80;32.21;100796.38;4196251;28;20043;-46
2022/01/24 02:52:38;;;;;;;29.20;16.00;;;;;;;19.75;32.04;100791.63;4225104;28;20028;-47
2022/01/24 02:54:40;;;;;;;28.13;14.85;;;;;;;19.77;31.89;100806.06;4227586;27;20526;-45
2022/01/24 02:56:43;;;;;;;26.92;15.77;;;;;;;19.76;31.87;100790.53;4226711;28;20028;-46
2022/01/24 02:58:44;;;;;;;28.05;15.32;;;;;;;19.75;32.10;100796.38;4237961;27;20081;-45
2022/01/24 03:00:50;;;;;;;26.55;15.20;;;;;;;19.75;31.91;100799.97;4246125;27;20031;-48
2022/01/24 03:02:51;;;;;;;28.45;15.63;;;;;;;19.74;32.36;100789.94;4231016;28;20043;-46
2022/01/24 03:04:54;;;;;;;25.80;14.07;;;;;;;19.75;32.09;100805.53;4231062;28;20092;-45
2022/01/24 03:06:56;;;;;;;29.25;14.85;;;;;;;19.73;32.06;100804.94;4230866;28;20048;-44
2022/01/24 03:08:57;;;;;;;28.98;15.07;;;;;;;19.72;32.12;100805.22;4230507;28;20092;-47
2022/01/24 03:11:00;;;;;;;26.77;14.63;;;;;;;19.70;32.38;100799.97;4238530;27;20031;-45
2022/01/24 03:13:19;;;;;;;27.88;13.77;;;;;;;19.69;32.18;100803.00;4234927;27;20093;-47
2022/01/24 03:15:20;;;;;;;26.25;14.02;;;;;;;19.71;32.59;100798.84;4224855;28;20471;-50
2022/01/24 03:17:21;;;;;;;25.58;13.38;;;;;;;19.69;32.76;100801.06;4214394;28;20081;-47
2022/01/24 03:19:23;;;;;;;23.65;13.23;;;;;;;19.71;33.15;100795.25;4228852;28;20043;-48
2022/01/24 03:21:25;;;;;;;23.35;13.50;;;;;;;19.70;33.37;100793.56;4229660;28;20098;-48
2022/01/24 03:23:27;;;;;;;23.58;13.00;;;;;;;19.71;33.76;100793.28;4214079;28;20081;-45
2022/01/24 03:25:28;;;;;;;24.35;13.48;;;;;;;19.71;34.37;100790.53;4213308;28;20036;-49
2022/01/24 03:27:29;;;;;;;24.23;12.90;;;;;;;19.74;34.11;100791.91;4217332;28;20097;-48
2022/01/24 03:29:33;;;;;;;27.52;13.23;;;;;;;19.73;34.36;100787.47;4206754;28;20112;-47
2022/01/24 03:31:35;;;;;;;22.58;12.88;;;;;;;19.76;34.64;100789.69;4213256;28;20090;-46
2022/01/24 03:33:37;;;;;;;21.10;12.40;;;;;;;19.78;34.68;100787.47;4219939;28;20085;-47
2022/01/24 03:35:43;;;;;;;24.67;12.30;;;;;;;19.75;34.31;100791.63;4231965;28;20035;-47
2022/01/24 03:37:45;;;;;;;23.48;12.10;;;;;;;19.71;34.45;100790.53;4233858;28;20100;-49
2022/01/24 03:39:46;;;;;;;22.13;12.05;;;;;;;19.75;34.36;100791.63;4233477;28;20096;-50
2022/01/24 03:41:47;;;;;;;24.23;12.18;;;;;;;19.56;34.60;100759.91;4234106;28;20039;-49
2022/01/24 03:43:49;;;;;;;22.88;11.63;;;;;;;19.72;34.71;100791.34;4232460;28;20051;-47
2022/01/24 03:46:12;;;;;;;21.00;11.18;;;;;;;19.73;34.77;100791.06;4225783;28;20112;-49
2022/01/24 03:48:37;;;;;;;24.95;11.82;;;;;;;19.69;34.47;100791.88;4217225;28;20079;-47
2022/01/24 03:50:39;;;;;;;22.88;11.90;;;;;;;19.73;34.75;100793.00;4216337;28;20052;-51
2022/01/24 03:52:40;;;;;;;23.45;12.00;;;;;;;19.75;34.68;100799.97;4221829;28;20031;-48
2022/01/24 03:54:43;;;;;;;19.17;10.68;;;;;;;19.74;34.67;100798.28;4233389;28;20047;-47
2022/01/24 03:56:44;;;;;;;20.25;10.20;;;;;;;19.69;34.30;100792.72;4233660;28;20097;-50
2022/01/24 03:58:46;;;;;;;20.13;10.35;;;;;;;19.70;34.20;100790.78;4233100;28;20088;-49
2022/01/24 04:00:47;;;;;;;21.85;11.65;;;;;;;19.69;34.36;100798.28;4233359;28;20119;-47
2022/01/24 04:02:52;;;;;;;16.67;9.45;;;;;;;19.68;34.64;100796.63;4233106;28;20425;-47
2022/01/24 04:04:54;;;;;;;19.27;10.75;;;;;;;19.66;34.15;100798.84;4233596;28;20028;-47
2022/01/24 04:06:55;;;;;;;18.13;9.93;;;;;;;19.68;34.00;100801.34;4233902;28;20081;-46
2022/01/24 04:08:56;;;;;;;15.45;8.50;;;;;;;19.67;34.29;100796.91;4231228;28;20035;-47
2022/01/24 04:10:59;;;;;;;18.35;10.63;;;;;;;19.68;33.87;100793.00;4215841;28;20156;-46
2022/01/24 04:13:08;;;;;;;16.27;9.13;;;;;;;19.68;34.02;100796.63;4216147;28;20463;-46
2022/01/24 04:15:56;;;;;;;14.43;8.57;;;;;;;19.69;34.00;100803.81;4217064;28;20104;-48
2022/01/24 04:17:42;;;;;;;16.02;9.70;;;;;;;19.67;33.81;100789.41;4213806;28;20040;-47
2022/01/24 04:21:55;;;;;;;16.10;8.68;;;;;;;19.69;33.90;100791.88;4220560;28;20539;-48
2022/01/24 04:24:11;;;;;;;15.77;8.63;;;;;;;19.64;34.03;100789.94;4233653;28;20376;-50
2022/01/24 04:26:13;;;;;;;12.45;8.30;;;;;;;19.67;33.61;100799.69;4222687;28;20047;-51
2022/01/24 04:28:14;;;;;;;14.55;8.07;;;;;;;19.64;33.97;100798.28;4216197;28;20073;-46
2022/01/24 04:30:16;;;;;;;16.15;8.30;;;;;;;19.63;33.57;100793.84;4217168;28;20124;-49
2022/01/24 04:32:18;;;;;;;14.25;8.15;;;;;;;19.61;33.61;100784.97;4229049;28;20039;-45
2022/01/24 04:34:19;;;;;;;14.65;8.13;;;;;;;19.59;33.76;100792.69;4250248;27;20088;-48
2022/01/24 04:36:21;;;;;;;13.57;7.53;;;;;;;19.60;33.64;100788.81;4250148;27;20039;-50
2022/01/24 04:38:23;;;;;;;13.13;7.32;;;;;;;19.58;33.75;100779.91;4249993;27;20039;-46
2022/01/24 04:40:28;;;;;;;15.13;7.82;;;;;;;19.57;33.88;100788.53;4249081;27;20043;-44
2022/01/24 04:42:51;;;;;;;13.18;7.45;;;;;;;19.57;33.63;100794.91;4249667;27;20044;-46
2022/01/24 04:47:08;;;;;;;14.32;7.28;;;;;;;19.53;33.71;100789.06;4244276;27;20084;-47
2022/01/24 04:51:38;;;;;;;10.73;6.75;;;;;;;19.53;33.21;100791.03;4250961;27;20096;-49
2022/01/24 04:55:44;;;;;;;12.43;6.82;;;;;;;19.52;33.52;100794.91;4250294;27;20103;-46
2022/01/24 04:57:48;;;;;;;11.52;6.60;;;;;;;19.50;33.47;100799.88;4249710;27;20103;-45
2022/01/24 04:59:51;;;;;;;9.45;5.60;;;;;;;19.09;33.16;100726.84;4249804;27;20084;-44
2022/01/24 05:01:52;;;;;;;9.23;6.20;;;;;;;19.47;33.55;100783.78;4250148;27;20035;-44
2022/01/24 05:03:54;;;;;;;10.13;6.07;;;;;;;19.47;33.12;100787.41;4235433;27;20036;-50
2022/01/24 05:05:55;;;;;;;8.65;5.50;;;;;;;19.45;33.10;100795.16;4232904;28;20040;-48
2022/01/24 05:07:59;;;;;;;9.43;5.70;;;;;;;19.46;33.33;100793.22;4232620;28;20039;-50
2022/01/24 05:10:03;;;;;;;9.20;5.22;;;;;;;19.45;33.52;100797.94;4231842;28;21048;-46
2022/01/24 05:12:14;;;;;;;10.10;5.57;;;;;;;19.44;33.08;100795.44;4229771;28;20111;-49
2022/01/24 05:23:48;;;;;;;9.48;4.75;;;;;;;19.40;33.25;100794.31;4200131;28;20036;-46
2022/01/24 05:25:50;;;;;;;9.57;5.30;;;;;;;19.41;33.29;100795.97;4220321;28;20172;-47
2022/01/24 05:27:51;;;;;;;6.80;4.60;;;;;;;19.38;33.26;100802.06;4245565;27;20036;-49
2022/01/24 05:29:53;;;;;;;9.23;5.18;;;;;;;19.36;33.04;100798.75;4248796;27;20624;-47
2022/01/24 05:31:55;;;;;;;8.18;4.78;;;;;;;19.34;32.86;100800.97;4233808;27;20088;-45
2022/01/24 05:33:56;;;;;;;7.32;4.28;;;;;;;19.35;32.93;100802.63;4232317;28;20088;-47
2022/01/24 05:35:58;;;;;;;8.02;4.95;;;;;;;19.33;33.01;100799.28;4232122;28;20062;-46
2022/01/24 05:37:59;;;;;;;9.10;5.38;;;;;;;19.33;33.02;100804.84;4231770;28;20048;-49
2022/01/24 05:40:01;;;;;;;9.13;4.55;;;;;;;19.33;33.23;100793.75;4231473;28;20089;-48
2022/01/24 05:42:03;;;;;;;7.57;4.47;;;;;;;19.30;33.27;100795.97;4232490;28;20359;-51
2022/01/24 05:44:06;;;;;;;6.28;4.25;;;;;;;19.29;33.26;100799.84;4247200;27;20103;-49
2022/01/24 05:46:07;;;;;;;6.25;4.18;;;;;;;19.28;32.82;100795.38;4248959;27;20039;-46
2022/01/24 05:48:09;;;;;;;6.05;4.05;;;;;;;19.26;33.07;100800.38;4248907;27;20088;-47
2022/01/24 05:50:10;;;;;;;8.27;4.78;;;;;;;19.21;32.76;100780.13;4248498;27;20084;-48
2022/01/24 05:52:12;;;;;;;7.50;4.68;;;;;;;19.26;33.27;100794.84;4235482;27;20092;-48
2022/01/24 05:54:14;;;;;;;5.15;3.40;;;;;;;19.24;33.21;100788.75;4231973;28;20105;-47
2022/01/24 05:56:18;;;;;;;6.93;3.75;;;;;;;19.23;32.87;100795.38;4232378;28;20444;-45
2022/01/24 05:58:19;;;;;;;6.70;4.27;;;;;;;19.21;32.81;100797.59;4231085;28;20032;-46
2022/01/24 06:00:22;;;;;;;7.47;4.18;;;;;;;19.20;33.18;100790.41;4230969;28;20092;-47
2022/01/24 06:02:24;;;;;;;5.25;3.63;;;;;;;19.19;32.89;100794.25;4231761;28;20047;-46
2022/01/24 06:04:25;;;;;;;5.22;3.75;;;;;;;19.20;33.02;100804.25;4231245;28;20092;-48
2022/01/24 06:06:27;;;;;;;6.82;4.10;;;;;;;19.15;32.81;100793.16;4231185;28;20065;-48
2022/01/24 06:08:31;;;;;;;6.88;4.18;;;;;;;19.14;32.91;100791.47;4204125;28;20085;-48
2022/01/24 06:10:32;;;;;;;5.43;3.40;;;;;;;19.17;32.86;100807.56;4226918;28;20475;-47
2022/01/24 06:12:34;;;;;;;7.40;3.88;;;;;;;19.17;32.67;100804.81;4214648;28;20109;-48
2022/01/24 06:14:35;;;;;;;6.47;3.92;;;;;;;19.15;32.66;100804.25;4215146;28;20028;-48
2022/01/24 06:16:38;;;;;;;6.05;3.55;;;;;;;19.17;32.83;100813.13;4214594;28;20097;-46
2022/01/24 06:18:39;;;;;;;4.80;3.10;;;;;;;19.14;32.81;100810.88;4214376;28;20040;-45
2022/01/24 06:20:40;;;;;;;5.07;2.90;;;;;;;19.12;32.67;100810.34;4245744;27;20092;-45
2022/01/24 06:22:42;;;;;;;4.82;3.58;;;;;;;19.11;32.62;100819.78;4238334;27;20036;-46
2022/01/24 06:24:46;;;;;;;5.18;3.78;;;;;;;19.11;32.58;100821.72;4230130;28;20097;-47
2022/01/24 06:26:47;;;;;;;5.82;3.55;;;;;;;19.09;32.73;100816.41;4230760;28;20116;-46
2022/01/24 06:28:48;;;;;;;4.93;3.30;;;;;;;19.03;32.92;100811.97;4230893;28;20057;-45
2022/01/24 06:30:50;;;;;;;4.68;3.40;;;;;;;19.06;32.76;100825.31;4231420;28;20044;-47
2022/01/24 06:32:51;;;;;;;5.30;3.60;;;;;;;19.06;32.83;100822.53;4221132;28;20055;-46
2022/01/24 06:34:53;;;;;;;4.38;3.20;;;;;;;19.05;33.00;100827.22;4213850;28;20036;-46
2022/01/24 06:36:54;;;;;;;5.00;3.30;;;;;;;19.07;32.91;100834.44;4229846;28;20096;-45
2022/01/24 06:38:55;;;;;;;3.92;3.00;;;;;;;19.05;32.99;100843.03;4216266;28;20449;-46
2022/01/24 06:40:57;;;;;;;4.30;2.97;;;;;;;19.03;32.69;100840.53;4223610;28;20043;-48
2022/01/24 06:42:59;;;;;;;5.03;3.15;;;;;;;19.04;32.58;100846.91;4226366;28;20036;-45
2022/01/24 06:45:00;;;;;;;5.13;3.00;;;;;;;19.02;32.92;100835.25;4217147;28;20089;-45
2022/01/24 06:47:02;;;;;;;5.43;3.42;;;;;;;19.01;32.96;100842.75;4215938;28;20040;-44
2022/01/24 06:49:09;;;;;;;4.35;2.85;;;;;;;18.99;32.99;100839.41;4223907;28;20044;-49
2022/01/24 06:51:10;;;;;;;5.32;2.92;;;;;;;18.97;32.92;100843.56;4214040;28;20097;-46
2022/01/24 06:53:11;;;;;;;3.97;3.08;;;;;;;18.97;32.63;100843.56;4225323;28;20112;-50
2022/01/24 06:55:13;;;;;;;5.70;3.10;;;;;;;18.98;32.83;100848.00;4230696;28;20043;-46
2022/01/24 06:57:16;;;;;;;4.72;3.03;;;;;;;18.96;32.65;100844.63;4215872;28;20094;-51
2022/01/24 06:59:17;;;;;;;3.75;2.72;;;;;;;18.93;32.50;100846.03;4225857;28;20547;-51
2022/01/24 07:01:18;;;;;;;6.28;3.17;;;;;;;18.94;32.92;100852.41;4222612;28;20043;-48
2022/01/24 07:03:20;;;;;;;4.32;2.80;;;;;;;18.92;32.50;100843.50;4213838;28;20384;-51
2022/01/24 07:05:25;;;;;;;4.68;2.83;;;;;;;18.92;32.69;100854.59;4217458;28;20463;-47
2022/01/24 07:07:28;;;;;;;3.88;3.28;;;;;;;18.87;32.69;100840.72;4219431;28;20036;-50
2022/01/24 07:09:30;;;;;;;4.05;2.72;;;;;;;18.86;32.80;100844.59;4213453;28;20020;-51
2022/01/24 07:11:32;;;;;;;3.38;2.45;;;;;;;18.90;32.91;100856.81;4225248;28;20096;-49
2022/01/24 07:13:33;;;;;;;3.20;2.42;;;;;;;18.90;32.71;100856.81;4228184;28;20520;-43
2022/01/24 07:15:41;;;;;;;4.47;2.95;;;;;;;18.89;32.57;100857.94;4230222;28;20093;-45
2022/01/24 07:19:52;;;;;;;3.90;2.65;;;;;;;18.88;32.37;100870.97;4230555;28;20467;-46
2022/01/24 07:21:55;;;;;;;3.42;2.42;;;;;;;18.87;32.65;100871.22;4214519;28;20040;-45
2022/01/24 07:23:56;;;;;;;4.40;2.97;;;;;;;18.86;32.58;100873.16;4220134;28;20036;-48
2022/01/24 07:25:58;;;;;;;4.70;2.70;;;;;;;18.84;32.72;100877.31;4214432;28;20036;-47
2022/01/24 07:27:59;;;;;;;3.05;2.70;;;;;;;18.82;32.64;100877.56;4223576;28;20084;-45
2022/01/24 07:30:02;;;;;;;4.15;2.55;;;;;;;18.82;32.42;100873.97;4229176;28;20101;-46
2022/01/24 07:32:04;;;;;;;3.88;2.65;;;;;;;18.76;32.60;100862.84;4211382;28;20047;-48
2022/01/24 07:34:14;;;;;;;4.18;2.83;;;;;;;18.82;32.53;100877.56;4227981;28;20105;-44
2022/01/24 07:36:16;;;;;;;3.35;2.60;;;;;;;18.81;32.74;100884.22;4213285;28;20077;-48
2022/01/24 07:38:17;;;;;;;4.05;2.70;;;;;;;18.78;32.52;100881.97;4220623;28;20031;-46
2022/01/24 07:40:20;;;;;;;3.80;2.20;;;;;;;18.79;32.78;100889.22;4229768;28;20089;-48
2022/01/24 07:42:52;;;;;;;;;;;;;;;18.74;32.78;100897.50;4226510;28;20486;-47
2022/01/24 07:44:54;;;;;;;4.43;2.53;;;;;;;18.82;32.59;100893.38;4225302;28;19923;-52
2022/01/24 07:46:55;;;;;;;3.25;2.38;;;;;;;18.61;32.53;100865.50;4230812;28;20032;-44
2022/01/24 07:48:56;;;;;;;3.63;2.53;;;;;;;18.78;32.68;100901.38;4211827;28;20097;-44
2022/01/24 07:50:58;;;;;;;3.28;2.38;;;;;;;18.77;32.50;100897.78;4231135;28;20413;-45
2022/01/24 07:52:59;;;;;;;3.10;2.50;;;;;;;18.76;32.32;100906.38;4230432;28;20081;-44
2022/01/24 07:55:01;;;;;;;3.90;2.65;;;;;;;18.74;32.71;100908.59;4230484;28;20040;-45
2022/01/24 07:57:03;;;;;;;4.60;2.35;;;;;;;18.71;32.42;100907.16;4230740;28;20039;-47
2022/01/24 07:59:04;;;;;;;3.90;2.67;;;;;;;18.70;32.25;100902.72;4229903;28;20036;-44
2022/01/24 08:01:06;;;;;;;3.38;2.67;;;;;;;18.70;32.37;100908.28;4230083;28;20430;-45
2022/01/24 08:03:08;;;;;;;3.80;2.35;;;;;;;18.70;32.43;100901.91;4220916;28;20024;-47
2022/01/24 08:05:10;;;;;;;3.17;2.58;;;;;;;18.69;32.70;100901.06;4213718;28;20484;-47
2022/01/24 08:07:12;;;;;;;3.40;2.47;;;;;;;18.66;32.42;100907.09;4213379;28;20032;-45
2022/01/24 08:09:14;;;;;;;3.60;2.92;;;;;;;18.66;32.60;100907.09;4212568;28;20094;-46
2022/01/24 08:11:17;;;;;;;2.97;2.13;;;;;;;18.65;32.57;100905.44;4213199;28;20471;-45
2022/01/24 08:13:19;;;;;;;3.33;2.55;;;;;;;18.62;32.67;100903.19;4213307;28;20093;-46
2022/01/24 08:15:20;;;;;;;3.10;2.30;;;;;;;18.65;32.77;100910.16;4195666;28;20048;-49
2022/01/24 08:17:22;;;;;;;3.17;2.40;;;;;;;18.61;32.29;100898.75;4213232;28;20048;-48
2022/01/24 08:19:23;;;;;;;4.22;2.60;;;;;;;18.63;32.19;100901.25;4213222;28;20483;-46
2022/01/24 08:21:24;;;;;;;2.90;2.30;;;;;;;18.62;32.59;100905.13;4223827;28;20040;-46
2022/01/24 08:23:26;;;;;;;2.92;2.17;;;;;;;18.58;32.73;100892.91;4232987;28;20035;-45
2022/01/24 08:25:27;;;;;;;3.13;2.42;;;;;;;18.60;32.61;100902.63;4233287;28;20076;-47
2022/01/24 08:27:29;;;;;;;3.10;2.67;;;;;;;18.60;32.28;100910.09;4227772;28;20027;-46
2022/01/24 08:29:31;;;;;;;2.97;2.05;;;;;;;18.61;32.52;100917.31;4218602;28;20035;-47
2022/01/24 08:31:35;;;;;;;3.50;2.63;;;;;;;18.61;32.59;100915.38;4232631;28;20364;-44
2022/01/24 08:33:36;;;;;;;3.65;2.50;;;;;;;18.59;32.31;100914.81;4230123;28;20535;-50
2022/01/24 08:35:38;;;;;;;3.22;2.30;;;;;;;18.59;32.21;100922.28;4233379;28;20084;-49
2022/01/24 08:37:40;;;;;;;3.10;2.50;;;;;;;18.59;32.38;100920.34;4233038;28;20044;-52
2022/01/24 08:39:42;;;;;;;3.70;2.45;;;;;;;18.57;32.27;100918.97;4233091;28;20092;-46
2022/01/24 08:44:11;;;;;;;4.15;2.70;;;;;;;18.57;32.15;100935.59;4216997;28;20032;-50
2022/01/24 08:46:12;;;;;;;3.05;2.60;;;;;;;18.52;32.25;100930.84;4217483;28;20047;-48
2022/01/24 08:48:16;;;;;;;3.35;2.08;;;;;;;18.53;32.56;100933.34;4218085;28;20024;-51
2022/01/24 08:50:25;;;;;;;3.03;2.40;;;;;;;18.53;32.51;100935.28;4228668;28;20028;-49
2022/01/24 08:52:27;;;;;;;3.55;2.20;;;;;;;18.53;32.16;100940.81;4232216;28;20055;-45
2022/01/24 08:54:29;;;;;;;2.78;2.33;;;;;;;18.53;32.17;100935.28;4232715;28;20032;-46
2022/01/24 08:56:35;;;;;;;3.45;2.40;;;;;;;18.50;32.38;100935.78;4220855;28;20467;-44
2022/01/24 08:58:36;;;;;;;3.58;2.17;;;;;;;18.49;32.29;100925.81;4215714;28;20036;-47
2022/01/24 09:00:37;;;;;;;2.17;1.98;;;;;;;18.50;32.09;100925.53;4215570;28;20094;-47
2022/01/24 09:02:39;;;;;;;3.05;2.50;;;;;;;18.47;32.51;100931.63;4232935;28;20031;-47
2022/01/24 09:04:40;;;;;;;2.92;2.30;;;;;;;18.48;32.50;100930.53;4232378;28;20036;-46
2022/01/24 09:06:41;;;;;;;4.00;2.85;;;;;;;18.47;32.33;100936.34;4232271;28;20096;-49
2022/01/24 09:08:43;;;;;;;2.80;2.17;;;;;;;18.47;32.57;100933.56;4231470;28;20077;-47
2022/01/24 09:10:47;;;;;;;3.17;2.35;;;;;;;18.47;32.18;100941.88;4227417;28;20442;-44
2022/01/24 09:12:48;;;;;;;3.55;2.45;;;;;;;18.45;32.13;100952.38;4216009;28;20097;-46
2022/01/24 09:14:50;;;;;;;2.22;1.90;;;;;;;18.45;32.29;100953.22;4215554;28;20070;-50
2022/01/24 09:16:52;;;;;;;2.95;2.40;;;;;;;18.44;32.43;100965.41;4228171;28;20069;-51
2022/01/24 09:18:58;;;;;;;2.38;2.17;;;;;;;18.42;32.50;100955.69;4218600;28;20101;-45
2022/01/24 09:20:59;;;;;;;3.70;2.53;;;;;;;18.42;32.29;100967.59;4215516;28;20036;-48
2022/01/24 09:23:01;;;;;;;2.72;2.20;;;;;;;18.40;32.41;100968.97;4226628;28;20511;-47
2022/01/24 09:25:05;;;;;;;2.50;2.30;;;;;;;18.40;32.21;100957.88;4232437;28;20084;-46
2022/01/24 09:27:06;;;;;;;3.00;2.30;;;;;;;18.39;32.45;100956.22;4229672;28;20089;-47
2022/01/24 09:29:10;;;;;;;3.72;2.67;;;;;;;18.38;32.56;100960.09;4231368;28;20047;-45
2022/01/24 09:31:12;;;;;;;3.53;2.60;;;;;;;18.36;32.40;100968.63;4225269;28;20468;-47
2022/01/24 09:33:14;;;;;;;3.75;2.20;;;;;;;18.34;32.19;100983.88;4227538;28;20424;-44
2022/01/24 09:35:17;;;;;;;3.85;2.67;;;;;;;18.36;32.50;100984.44;4216691;28;20044;-46
2022/01/24 09:37:18;;;;;;;3.08;2.10;;;;;;;18.37;32.09;100991.63;4230570;28;20040;-47
2022/01/24 09:39:19;;;;;;;3.42;2.50;;;;;;;18.36;32.05;100998.28;4232031;28;20100;-45
2022/01/24 09:41:21;;;;;;;2.85;2.40;;;;;;;18.35;32.32;101000.22;4218476;28;20036;-44
2022/01/24 09:43:25;;;;;;;2.90;2.42;;;;;;;18.34;32.26;100994.94;4215288;28;20044;-44
2022/01/24 09:45:32;;;;;;;3.95;2.50;;;;;;;18.32;32.18;101005.44;4227309;28;20104;-52
2022/01/24 09:47:37;;;;;;;3.30;2.42;;;;;;;18.34;32.33;101014.34;4224079;28;20168;-50
2022/01/24 09:49:38;;;;;;;3.05;2.40;;;;;;;18.33;32.51;101012.69;4218666;28;20445;-48
2022/01/24 09:51:43;;;;;;;2.40;2.20;;;;;;;18.32;32.27;101019.28;4231220;28;20041;-45
2022/01/24 09:53:45;;;;;;;3.47;2.40;;;;;;;18.28;32.30;101014.28;4225322;28;20049;-47
2022/01/24 09:55:46;;;;;;;3.38;2.50;;;;;;;18.28;32.52;101028.16;4217792;28;20039;-48
2022/01/24 09:57:48;;;;;;;2.55;2.22;;;;;;;18.28;32.19;101028.16;4224885;28;20389;-47
2022/01/24 09:59:50;;;;;;;2.30;2.10;;;;;;;18.29;32.21;101026.22;4221304;28;20116;-46
2022/01/24 10:01:52;;;;;;;3.25;2.72;;;;;;;18.28;32.46;101025.38;4224275;28;20113;-48
2022/01/24 10:04:16;;;;;;;2.92;2.38;;;;;;;18.24;32.54;101032.53;4218417;28;20044;-47
2022/01/24 10:06:17;;;;;;;4.15;2.70;;;;;;;18.26;32.47;101038.63;4221939;28;20032;-50
2022/01/24 10:08:19;;;;;;;2.67;2.30;;;;;;;18.25;32.53;101039.75;4217975;28;20479;-50
2022/01/24 10:10:27;;;;;;;2.67;2.08;;;;;;;18.23;32.27;101030.00;4230707;28;20483;-51
2022/01/24 10:17:17;;;;;;;3.90;2.67;;;;;;;18.22;32.18;101026.41;4227708;28;20088;-49
2022/01/24 10:19:21;;;;;;;3.05;2.50;;;;;;;18.22;32.14;101034.72;4230044;28;20206;-45
2022/01/24 10:21:25;;;;;;;2.53;2.20;;;;;;;18.15;32.42;101045.19;4214684;28;20024;-48
2022/01/24 10:23:26;;;;;;;2.88;2.50;;;;;;;18.20;32.05;101070.16;4214510;28;20437;-48
2022/01/24 10:25:29;;;;;;;3.67;2.90;;;;;;;18.20;32.28;101080.41;4215473;28;20121;-46
2022/01/24 10:27:33;;;;;;;2.92;2.58;;;;;;;18.19;32.14;101076.78;4214235;28;20044;-46
2022/01/24 10:29:59;;;;;;;3.05;2.40;;;;;;;18.18;32.38;101091.72;4214716;28;20495;-44
2022/01/24 10:32:00;;;;;;;3.55;2.75;;;;;;;18.19;32.08;101096.19;4214742;28;20035;-49
2022/01/24 10:34:10;;;;;;;3.17;2.85;;;;;;;18.18;32.10;101093.66;4227737;28;20037;-46
2022/01/24 10:36:14;;;;;;;3.38;2.60;;;;;;;18.17;32.23;101097.53;4223365;28;20109;-46
2022/01/24 10:38:41;;;;;;;2.92;2.42;;;;;;;18.17;32.43;101103.06;4218527;28;20043;-45
2022/01/24 10:40:50;;;;;;;2.97;2.63;;;;;;;18.14;32.30;101104.41;4215860;28;20048;-48
2022/01/24 10:43:14;;;;;;;2.80;2.50;;;;;;;18.15;32.15;101103.34;4214458;28;20039;-45
2022/01/24 10:45:22;;;;;;;2.63;2.33;;;;;;;18.13;32.13;101104.69;4224553;28;20052;-51
2022/01/24 10:47:28;;;;;;;3.40;2.58;;;;;;;18.13;32.13;101111.06;4229978;28;20386;-49
2022/01/24 10:49:32;;;;;;;3.03;2.53;;;;;;;18.10;32.17;101106.03;4227588;28;20084;-49
2022/01/24 10:51:47;;;;;;;3.50;2.72;;;;;;;18.10;31.95;101106.03;4224338;28;20040;-50
2022/01/24 10:53:48;;;;;;;2.50;2.10;;;;;;;18.11;32.20;101102.19;4213938;28;20039;-50
2022/01/24 10:55:50;;;;;;;2.97;2.67;;;;;;;18.09;32.18;101101.56;4214379;28;20449;-49
2022/01/24 10:58:13;;;;;;;3.13;2.80;;;;;;;18.08;32.32;101112.94;4219606;28;20048;-46
2022/01/24 11:00:26;;;;;;;2.70;2.45;;;;;;;18.06;32.20;101113.19;4230354;28;20044;-47
2022/01/24 11:02:40;;;;;;;3.13;2.47;;;;;;;18.06;32.00;101107.66;4227457;28;20425;-49
2022/01/24 11:04:41;;;;;;;3.88;2.35;;;;;;;18.07;31.98;101114.84;4230315;28;20040;-44
2022/01/24 11:06:46;;;;;;;3.20;2.60;;;;;;;18.06;31.96;101118.72;4229824;28;20035;-50
2022/01/24 11:08:47;;;;;;;5.50;3.00;;;;;;;18.05;32.21;101130.88;4225090;28;20077;-46
2022/01/24 11:10:54;;;;;;;2.85;2.45;;;;;;;18.03;32.08;101135.84;4223977;27;20417;-47